^^
Datos históricos de la estación: Murcia-Puente Tocinos
Diario Informe para Febrero 19, 2019 Unidades:  Ambas    Ingés   Métrico
Diario Semanal Mensual Anual
  Máxima: Mínima: Promedio:
Temperatura: 90.9 °F /  32.7 °C 75.4 °F /  24.1 °C 82.8 °F /  28.2 °C
Punto de rocio: 74.8 °F /  23.8 °C 59.5 °F /  15.3 °C 68.2 °F /  20.1 °C
Humedad: 88% 40.4% 63%
Velocidad viento: 13mph /  20.9km/h - 6.2mph /  9.9km/h
Racha viento: 25mph /  40.2km/h - -
Viento- - ESE
Presión: 29.9 in /  1013.0 hPa 29.8 in /  1010.2 hPa -
Precipitación: 0 in /  0.0 mm    
 
 
Tabla de datos para Febrero 19, 2019
Hora Temperatura Punto de rocio Presión Viento Velocidad viento Racha viento Humedad Intensidad lluvia(por hora) Nubes
00:04 80.2 °F /  26.8 °C 72.7 °F /  22.6 °C 29.8in /  1010.7hPa NE 5.9mph /  9.5km/h 9mph /  14.5km/h 77.8% 0in /  0.0mm
00:09 80.2 °F /  26.8 °C 73 °F /  22.8 °C 29.8in /  1010.7hPa NE 5.7mph /  9.1km/h 7mph /  11.3km/h 78.7% 0in /  0.0mm
00:14 80.2 °F /  26.8 °C 73.2 °F /  22.9 °C 29.8in /  1010.7hPa NNE 4.7mph /  7.6km/h 8.1mph /  13km/h 79.4% 0in /  0.0mm
00:19 80.1 °F /  26.7 °C 73.4 °F /  23 °C 29.9in /  1010.8hPa NE 4.3mph /  7km/h 8mph /  12.9km/h 80% 0in /  0.0mm
00:24 80.1 °F /  26.7 °C 73.6 °F /  23.1 °C 29.9in /  1010.8hPa North 3.1mph /  5km/h 6mph /  9.7km/h 80.6% 0in /  0.0mm
00:29 80.1 °F /  26.7 °C 73.8 °F /  23.2 °C 29.9in /  1010.8hPa NE 3.2mph /  5.2km/h 8.1mph /  13km/h 81% 0in /  0.0mm
00:34 79.9 °F /  26.6 °C 73.9 °F /  23.3 °C 29.9in /  1010.9hPa NNE 3.6mph /  5.8km/h 8.1mph /  13km/h 81.9% 0in /  0.0mm
00:39 79.9 °F /  26.6 °C 73.9 °F /  23.3 °C 29.9in /  1010.9hPa NE 3.6mph /  5.8km/h 7mph /  11.3km/h 82.1% 0in /  0.0mm
00:44 79.7 °F /  26.5 °C 74.1 °F /  23.4 °C 29.9in /  1010.9hPa NE 3.6mph /  5.8km/h 6.2mph /  10km/h 83% 0in /  0.0mm
00:49 79.5 °F /  26.4 °C 74.1 °F /  23.4 °C 29.9in /  1010.9hPa NE 3.7mph /  5.9km/h 6.9mph /  11.1km/h 83.6% 0in /  0.0mm
00:54 79.3 °F /  26.3 °C 74.3 °F /  23.5 °C 29.9in /  1010.9hPa NE 4mph /  6.5km/h 7mph /  11.3km/h 84.5% 0in /  0.0mm
00:59 79.2 °F /  26.2 °C 74.3 °F /  23.5 °C 29.9in /  1010.9hPa NE 4mph /  6.5km/h 6.9mph /  11.1km/h 85% 0in /  0.0mm
01:04 79.2 °F /  26.2 °C 74.5 °F /  23.6 °C 29.9in /  1010.9hPa NE 4mph /  6.5km/h 7mph /  11.3km/h 86% 0in /  0.0mm
01:09 79 °F /  26.1 °C 74.5 °F /  23.6 °C 29.9in /  1010.9hPa NE 3.9mph /  6.3km/h 7mph /  11.3km/h 86.3% 0in /  0.0mm
01:14 79 °F /  26.1 °C 74.8 °F /  23.8 °C 29.9in /  1010.9hPa NE 3.6mph /  5.8km/h 5.9mph /  9.5km/h 87% 0in /  0.0mm
01:19 78.8 °F /  26 °C 74.5 °F /  23.6 °C 29.9in /  1010.9hPa NE 3.6mph /  5.8km/h 6mph /  9.7km/h 87% 0in /  0.0mm
01:24 78.6 °F /  25.9 °C 74.5 °F /  23.6 °C 29.9in /  1010.9hPa NNE 3.6mph /  5.8km/h 6mph /  9.7km/h 87.2% 0in /  0.0mm
01:29 78.6 °F /  25.9 °C 74.8 °F /  23.8 °C 29.9in /  1010.9hPa NNO 3.4mph /  5.4km/h 5.2mph /  8.4km/h 88% 0in /  0.0mm
01:34 78.6 °F /  25.9 °C 74.8 °F /  23.8 °C 29.9in /  1011.1hPa NO 2.4mph /  3.9km/h 5mph /  8km/h 88% 0in /  0.0mm
01:39 78.6 °F /  25.9 °C 74.8 °F /  23.8 °C 29.9in /  1011.1hPa NNO 2.5mph /  4.1km/h 5.8mph /  9.3km/h 88% 0in /  0.0mm
01:44 78.6 °F /  25.9 °C 74.8 °F /  23.8 °C 29.9in /  1011.1hPa NO 3.1mph /  5km/h 6mph /  9.7km/h 88% 0in /  0.0mm
01:49 78.4 °F /  25.8 °C 74.7 °F /  23.7 °C 29.9in /  1011.2hPa NO 2.9mph /  4.7km/h 5mph /  8km/h 87.9% 0in /  0.0mm
01:54 78.4 °F /  25.8 °C 74.1 °F /  23.4 °C 29.9in /  1011.2hPa NO 2.4mph /  3.9km/h 5mph /  8km/h 87% 0in /  0.0mm
01:59 78.4 °F /  25.8 °C 74.3 °F /  23.5 °C 29.9in /  1011.2hPa Este 2.1mph /  3.4km/h 4.6mph /  7.4km/h 87% 0in /  0.0mm
02:04 78.6 °F /  25.9 °C 74.5 °F /  23.6 °C 29.9in /  1011.2hPa ESE 1.4mph /  2.2km/h 5mph /  8km/h 87% 0in /  0.0mm
02:09 78.6 °F /  25.9 °C 74.5 °F /  23.6 °C 29.9in /  1011.0hPa ESE 1.8mph /  2.9km/h 5mph /  8km/h 87% 0in /  0.0mm
02:14 78.6 °F /  25.9 °C 74.5 °F /  23.6 °C 29.9in /  1011.0hPa SE 3.1mph /  5km/h 5mph /  8km/h 87% 0in /  0.0mm
02:19 78.6 °F /  25.9 °C 74.5 °F /  23.6 °C 29.9in /  1011.0hPa SE 2.9mph /  4.6km/h 5mph /  8km/h 87% 0in /  0.0mm
02:24 78.6 °F /  25.9 °C 74.5 °F /  23.6 °C 29.9in /  1010.8hPa SE 2mph /  3.2km/h 5mph /  8km/h 87% 0in /  0.0mm
02:29 78.6 °F /  25.9 °C 74.5 °F /  23.6 °C 29.9in /  1010.8hPa SE 2.1mph /  3.4km/h 5mph /  8km/h 87% 0in /  0.0mm
02:34 78.6 °F /  25.9 °C 74.3 °F /  23.5 °C 29.9in /  1010.8hPa Sur 2.4mph /  3.9km/h 5mph /  8km/h 87% 0in /  0.0mm
02:39 78.6 °F /  25.9 °C 74.5 °F /  23.6 °C 29.9in /  1010.8hPa OSO 2.3mph /  3.7km/h 4mph /  6.4km/h 87% 0in /  0.0mm
02:44 78.6 °F /  25.9 °C 74.5 °F /  23.6 °C 29.9in /  1010.8hPa SO 2mph /  3.2km/h 4mph /  6.4km/h 87% 0in /  0.0mm
02:49 78.6 °F /  25.9 °C 74.5 °F /  23.6 °C 29.9in /  1010.8hPa Sur 1.5mph /  2.4km/h 2.3mph /  3.7km/h 87% 0in /  0.0mm
02:54 78.6 °F /  25.9 °C 74.5 °F /  23.6 °C 29.8in /  1010.7hPa Calm     87% 0in /  0.0mm
02:59 78.4 °F /  25.8 °C 74.3 °F /  23.5 °C 29.8in /  1010.7hPa Calm     87% 0in /  0.0mm
03:04 78.4 °F /  25.8 °C 74.1 °F /  23.4 °C 29.8in /  1010.7hPa Calm     87% 0in /  0.0mm
03:09 78.4 °F /  25.8 °C 74.1 °F /  23.4 °C 29.8in /  1010.6hPa Calm   1.8mph /  2.9km/h 86.9% 0in /  0.0mm
03:14 78.4 °F /  25.8 °C 73.9 °F /  23.3 °C 29.8in /  1010.6hPa Calm   2.3mph /  3.7km/h 86% 0in /  0.0mm
03:19 78.4 °F /  25.8 °C 73.9 °F /  23.3 °C 29.8in /  1010.6hPa Calm   2.9mph /  4.7km/h 86% 0in /  0.0mm
03:24 78.6 °F /  25.9 °C 74.1 °F /  23.4 °C 29.8in /  1010.6hPa Calm   3.5mph /  5.6km/h 86% 0in /  0.0mm
03:29 78.6 °F /  25.9 °C 74.1 °F /  23.4 °C 29.8in /  1010.6hPa OSO 0.4mph /  0.7km/h 3.1mph /  5km/h 86% 0in /  0.0mm
03:34 78.6 °F /  25.9 °C 73.9 °F /  23.3 °C 29.8in /  1010.6hPa ONO 2mph /  3.2km/h 3.5mph /  5.6km/h 85.5% 0in /  0.0mm
03:39 78.4 °F /  25.8 °C 73.8 °F /  23.2 °C 29.8in /  1010.5hPa ONO 1.9mph /  3km/h 3.5mph /  5.6km/h 85.3% 0in /  0.0mm
03:44 78.4 °F /  25.8 °C 73.2 °F /  22.9 °C 29.8in /  1010.5hPa SSO 1.4mph /  2.2km/h 3.6mph /  5.8km/h 84.1% 0in /  0.0mm
03:49 77.9 °F /  25.5 °C 71.4 °F /  21.9 °C 29.8in /  1010.5hPa Sur 1.5mph /  2.4km/h 4.6mph /  7.4km/h 80.3% 0in /  0.0mm
03:54 77.5 °F /  25.3 °C 69.8 °F /  21 °C 29.8in /  1010.4hPa Sur 1.8mph /  2.9km/h 5mph /  8km/h 76.8% 0in /  0.0mm
03:59 77.5 °F /  25.3 °C 68.5 °F /  20.3 °C 29.8in /  1010.4hPa SSO 2mph /  3.2km/h 5.2mph /  8.4km/h 74% 0in /  0.0mm
04:04 77.7 °F /  25.4 °C 68.4 °F /  20.2 °C 29.8in /  1010.4hPa SO 2.4mph /  3.9km/h 5mph /  8km/h 73% 0in /  0.0mm
04:09 77.9 °F /  25.5 °C 67.8 °F /  19.9 °C 29.8in /  1010.4hPa SO 2.5mph /  4km/h 5.2mph /  8.4km/h 71.3% 0in /  0.0mm
04:14 78.1 °F /  25.6 °C 67.5 °F /  19.7 °C 29.8in /  1010.4hPa SO 2.9mph /  4.7km/h 5.8mph /  9.3km/h 69.7% 0in /  0.0mm
04:19 78.3 °F /  25.7 °C 66.9 °F /  19.4 °C 29.8in /  1010.4hPa SO 2.9mph /  4.7km/h 6mph /  9.7km/h 68.2% 0in /  0.0mm
04:24 78.3 °F /  25.7 °C 66.2 °F /  19 °C 29.8in /  1010.3hPa Sur 2.9mph /  4.7km/h 6mph /  9.7km/h 66.7% 0in /  0.0mm
04:29 78.3 °F /  25.7 °C 65.5 °F /  18.6 °C 29.8in /  1010.3hPa Sur 2.9mph /  4.7km/h 5.4mph /  8.7km/h 65.1% 0in /  0.0mm
04:34 78.4 °F /  25.8 °C 65.3 °F /  18.5 °C 29.8in /  1010.3hPa SSO 2.9mph /  4.7km/h 5mph /  8km/h 64.3% 0in /  0.0mm
04:39 78.4 °F /  25.8 °C 64.9 °F /  18.3 °C 29.8in /  1010.3hPa SSE 2.9mph /  4.7km/h 5mph /  8km/h 63.4% 0in /  0.0mm
04:44 78.4 °F /  25.8 °C 64.8 °F /  18.2 °C 29.8in /  1010.3hPa SSE 2.9mph /  4.7km/h 5.2mph /  8.4km/h 63% 0in /  0.0mm
04:49 78.3 °F /  25.7 °C 64.6 °F /  18.1 °C 29.8in /  1010.3hPa SSE 2.9mph /  4.7km/h 5.2mph /  8.4km/h 63% 0in /  0.0mm
04:54 78.3 °F /  25.7 °C 64.6 °F /  18.1 °C 29.8in /  1010.3hPa SSE 3.1mph /  5km/h 5.2mph /  8.4km/h 63% 0in /  0.0mm
04:59 78.1 °F /  25.6 °C 64.9 °F /  18.3 °C 29.8in /  1010.3hPa Sur 3.1mph /  5km/h 5mph /  8km/h 63.9% 0in /  0.0mm
05:04 77.9 °F /  25.5 °C 64.8 °F /  18.2 °C 29.8in /  1010.3hPa SSO 3.1mph /  5km/h 5.2mph /  8.4km/h 64% 0in /  0.0mm
05:09 77.9 °F /  25.5 °C 64.6 °F /  18.1 °C 29.8in /  1010.2hPa SO 3mph /  4.9km/h 5mph /  8km/h 64% 0in /  0.0mm
05:14 77.7 °F /  25.4 °C 64.6 °F /  18.1 °C 29.8in /  1010.2hPa OSO 2.9mph /  4.7km/h 5mph /  8km/h 64% 0in /  0.0mm
05:19 77.7 °F /  25.4 °C 64.6 °F /  18.1 °C 29.8in /  1010.2hPa OSO 2.9mph /  4.7km/h 5mph /  8km/h 64% 0in /  0.0mm
05:24 77.5 °F /  25.3 °C 64.8 °F /  18.2 °C 29.8in /  1010.2hPa OSO 2.9mph /  4.7km/h 5mph /  8km/h 64.8% 0in /  0.0mm
05:29 77.5 °F /  25.3 °C 64.8 °F /  18.2 °C 29.8in /  1010.2hPa OSO 2.8mph /  4.5km/h 5mph /  8km/h 65% 0in /  0.0mm
05:34 77.5 °F /  25.3 °C 64.8 °F /  18.2 °C 29.8in /  1010.3hPa SO 2.4mph /  3.9km/h 4.7mph /  7.6km/h 65% 0in /  0.0mm
05:39 77.5 °F /  25.3 °C 64.9 °F /  18.3 °C 29.8in /  1010.3hPa OSO 2.5mph /  4km/h 5mph /  8km/h 65.5% 0in /  0.0mm
05:44 77.4 °F /  25.2 °C 64.9 °F /  18.3 °C 29.8in /  1010.3hPa OSO 2.9mph /  4.7km/h 5mph /  8km/h 65.8% 0in /  0.0mm
05:49 77.4 °F /  25.2 °C 64.8 °F /  18.2 °C 29.8in /  1010.3hPa OSO 2.7mph /  4.3km/h 3.6mph /  5.8km/h 65% 0in /  0.0mm
05:54 77.4 °F /  25.2 °C 64.6 °F /  18.1 °C 29.8in /  1010.3hPa OSO 2mph /  3.2km/h 4mph /  6.4km/h 65% 0in /  0.0mm
05:59 77.2 °F /  25.1 °C 64.6 °F /  18.1 °C 29.8in /  1010.3hPa OSO 1.9mph /  3.1km/h 4.6mph /  7.4km/h 65% 0in /  0.0mm
06:04 77.2 °F /  25.1 °C 64.6 °F /  18.1 °C 29.8in /  1010.3hPa OSO 1.8mph /  2.9km/h 5mph /  8km/h 65.2% 0in /  0.0mm
06:09 76.8 °F /  24.9 °C 64.6 °F /  18.1 °C 29.8in /  1010.3hPa OSO 1.9mph /  3km/h 4mph /  6.4km/h 66% 0in /  0.0mm
06:14 76.6 °F /  24.8 °C 64.6 °F /  18.1 °C 29.8in /  1010.3hPa OSO 2mph /  3.2km/h 4mph /  6.4km/h 66% 0in /  0.0mm
06:19 76.6 °F /  24.8 °C 64.8 °F /  18.2 °C 29.8in /  1010.3hPa Sur 2mph /  3.2km/h 4.7mph /  7.6km/h 66.6% 0in /  0.0mm
06:24 76.5 °F /  24.7 °C 64.8 °F /  18.2 °C 29.8in /  1010.3hPa SE 2mph /  3.2km/h 5.8mph /  9.3km/h 67.5% 0in /  0.0mm
06:29 75.9 °F /  24.4 °C 64.8 °F /  18.2 °C 29.8in /  1010.3hPa SSE 2.2mph /  3.6km/h 6mph /  9.7km/h 68% 0in /  0.0mm
06:34 75.7 °F /  24.3 °C 64.4 °F /  18 °C 29.8in /  1010.3hPa SSE 3.1mph /  5km/h 5mph /  8km/h 68% 0in /  0.0mm
06:39 75.7 °F /  24.3 °C 64.4 °F /  18 °C 29.8in /  1010.3hPa Sur 3.1mph /  5km/h 5mph /  8km/h 68% 0in /  0.0mm
06:44 75.7 °F /  24.3 °C 64.4 °F /  18 °C 29.8in /  1010.3hPa Sur 3.1mph /  5km/h 6.2mph /  10km/h 68% 0in /  0.0mm
06:49 75.7 °F /  24.3 °C 64.2 °F /  17.9 °C 29.8in /  1010.3hPa Sur 3.3mph /  5.3km/h 6.9mph /  11.1km/h 67.3% 0in /  0.0mm
06:54 75.9 °F /  24.4 °C 64.4 °F /  18 °C 29.8in /  1010.3hPa SSE 4mph /  6.5km/h 7mph /  11.3km/h 67.4% 0in /  0.0mm
06:59 75.9 °F /  24.4 °C 64.4 °F /  18 °C 29.8in /  1010.3hPa SSE 4.1mph /  6.6km/h 7mph /  11.3km/h 67.4% 0in /  0.0mm
07:04 75.7 °F /  24.3 °C 64.4 °F /  18 °C 29.8in /  1010.4hPa Sur 4.3mph /  6.9km/h 7mph /  11.3km/h 68.2% 0in /  0.0mm
07:09 75.6 °F /  24.2 °C 64.6 °F /  18.1 °C 29.8in /  1010.4hPa Sur 4.4mph /  7.1km/h 7mph /  11.3km/h 69% 0in /  0.0mm
07:14 75.4 °F /  24.1 °C 64.6 °F /  18.1 °C 29.8in /  1010.4hPa SSO 4.7mph /  7.6km/h 6mph /  9.7km/h 69% 0in /  0.0mm
07:19 75.4 °F /  24.1 °C 64.6 °F /  18.1 °C 29.8in /  1010.5hPa SO 4.3mph /  7km/h 6mph /  9.7km/h 69% 0in /  0.0mm
07:24 75.6 °F /  24.2 °C 64.4 °F /  18 °C 29.8in /  1010.5hPa Oeste 3.1mph /  5km/h 5mph /  8km/h 68.5% 0in /  0.0mm
07:29 75.6 °F /  24.2 °C 63.9 °F /  17.7 °C 29.8in /  1010.5hPa OSO 2.9mph /  4.7km/h 5mph /  8km/h 67.2% 0in /  0.0mm
07:34 75.6 °F /  24.2 °C 63.9 °F /  17.7 °C 29.8in /  1010.5hPa SO 2.4mph /  3.9km/h 5.8mph /  9.3km/h 67% 0in /  0.0mm
07:39 75.7 °F /  24.3 °C 63.7 °F /  17.6 °C 29.8in /  1010.5hPa SO 2.5mph /  4.1km/h 6mph /  9.7km/h 66.1% 0in /  0.0mm
07:44 75.9 °F /  24.4 °C 63.7 °F /  17.6 °C 29.8in /  1010.5hPa SSO 3.1mph /  5km/h 5mph /  8km/h 66% 0in /  0.0mm
07:49 76.1 °F /  24.5 °C 63.9 °F /  17.7 °C 29.8in /  1010.6hPa SSO 3mph /  4.9km/h 5mph /  8km/h 66% 0in /  0.0mm
07:54 76.3 °F /  24.6 °C 64.4 °F /  18 °C 29.8in /  1010.6hPa SSO 2.9mph /  4.7km/h 5mph /  8km/h 66.4% 0in /  0.0mm
07:59 76.5 °F /  24.7 °C 64.8 °F /  18.2 °C 29.8in /  1010.6hPa SSO 2.7mph /  4.4km/h 5.4mph /  8.7km/h 67% 0in /  0.0mm
08:04 76.5 °F /  24.7 °C 64.2 °F /  17.9 °C 29.8in /  1010.6hPa OSO 2.4mph /  3.9km/h 6mph /  9.7km/h 66% 0in /  0.0mm
08:09 76.6 °F /  24.8 °C 64 °F /  17.8 °C 29.8in /  1010.6hPa OSO 2.5mph /  4.1km/h 6mph /  9.7km/h 65.1% 0in /  0.0mm
08:14 76.6 °F /  24.8 °C 63.9 °F /  17.7 °C 29.8in /  1010.6hPa OSO 3.1mph /  5km/h 5mph /  8km/h 64.7% 0in /  0.0mm
08:19 76.8 °F /  24.9 °C 63.7 °F /  17.6 °C 29.8in /  1010.7hPa SO 3mph /  4.9km/h 5.8mph /  9.3km/h 64% 0in /  0.0mm
08:24 77.2 °F /  25.1 °C 63.5 °F /  17.5 °C 29.8in /  1010.7hPa OSO 2.9mph /  4.7km/h 6mph /  9.7km/h 63.1% 0in /  0.0mm
08:29 77.4 °F /  25.2 °C 63.3 °F /  17.4 °C 29.8in /  1010.7hPa OSO 3mph /  4.9km/h 6.2mph /  10km/h 62.2% 0in /  0.0mm
08:34 77.4 °F /  25.2 °C 63 °F /  17.2 °C 29.9in /  1010.8hPa OSO 3.6mph /  5.8km/h 6.2mph /  10km/h 61.1% 0in /  0.0mm
08:39 77.5 °F /  25.3 °C 63 °F /  17.2 °C 29.9in /  1010.8hPa SO 3.5mph /  5.6km/h 6mph /  9.7km/h 61% 0in /  0.0mm
08:44 77.7 °F /  25.4 °C 63.1 °F /  17.3 °C 29.9in /  1010.8hPa Sur 3.1mph /  5km/h 5.8mph /  9.3km/h 60.6% 0in /  0.0mm
08:49 78.1 °F /  25.6 °C 62.8 °F /  17.1 °C 29.9in /  1010.8hPa SSO 3.1mph /  5km/h 6.2mph /  10km/h 59.4% 0in /  0.0mm
08:54 78.3 °F /  25.7 °C 63.1 °F /  17.3 °C 29.9in /  1010.8hPa Sur 3.1mph /  5km/h 6mph /  9.7km/h 60.1% 0in /  0.0mm
08:59 78.4 °F /  25.8 °C 63.7 °F /  17.6 °C 29.9in /  1010.8hPa SSE 3mph /  4.9km/h 6.2mph /  10km/h 60.6% 0in /  0.0mm
09:04 78.3 °F /  25.7 °C 62.8 °F /  17.1 °C 29.9in /  1011.0hPa Sur 2.9mph /  4.6km/h 6.9mph /  11.1km/h 58.7% 0in /  0.0mm
09:09 78.3 °F /  25.7 °C 62.4 °F /  16.9 °C 29.9in /  1011.0hPa SSO 3.3mph /  5.3km/h 7.6mph /  12.2km/h 58% 0in /  0.0mm
09:14 78.4 °F /  25.8 °C 61.7 °F /  16.5 °C 29.9in /  1011.0hPa SSO 4.7mph /  7.6km/h 8.1mph /  13km/h 56.6% 0in /  0.0mm
09:19 78.6 °F /  25.9 °C 61.2 °F /  16.2 °C 29.9in /  1011.2hPa SO 4.7mph /  7.6km/h 8mph /  12.9km/h 54.9% 0in /  0.0mm
09:24 79.2 °F /  26.2 °C 61 °F /  16.1 °C 29.9in /  1011.2hPa SSO 4.7mph /  7.6km/h 6.9mph /  11.1km/h 53.8% 0in /  0.0mm
09:29 79.3 °F /  26.3 °C 60.6 °F /  15.9 °C 29.9in /  1011.2hPa SSO 4.6mph /  7.4km/h 7mph /  11.3km/h 52.9% 0in /  0.0mm
09:34 79.5 °F /  26.4 °C 60.4 °F /  15.8 °C 29.9in /  1011.3hPa SSO 4.3mph /  6.9km/h 8.1mph /  13km/h 52% 0in /  0.0mm
09:39 79.9 °F /  26.6 °C 60.6 °F /  15.9 °C 29.9in /  1011.3hPa SSO 4.5mph /  7.3km/h 8mph /  12.9km/h 52% 0in /  0.0mm
09:44 80.1 °F /  26.7 °C 60.8 °F /  16 °C 29.9in /  1011.3hPa SSO 5.2mph /  8.4km/h 8.1mph /  13km/h 52% 0in /  0.0mm
09:49 80.2 °F /  26.8 °C 61 °F /  16.1 °C 29.9in /  1011.4hPa SSO 5mph /  8.1km/h 8.1mph /  13km/h 51.8% 0in /  0.0mm
09:54 80.6 °F /  27 °C 60.8 °F /  16 °C 29.9in /  1011.4hPa SSO 4.3mph /  6.9km/h 8.1mph /  13km/h 51.2% 0in /  0.0mm
09:59 80.8 °F /  27.1 °C 60.8 °F /  16 °C 29.9in /  1011.4hPa SSO 4.5mph /  7.3km/h 8.1mph /  13km/h 50.7% 0in /  0.0mm
10:04 81.1 °F /  27.3 °C 60.6 °F /  15.9 °C 29.9in /  1011.4hPa SSO 5.2mph /  8.4km/h 7mph /  11.3km/h 49.9% 0in /  0.0mm
10:09 81.7 °F /  27.6 °C 60.6 °F /  15.9 °C 29.9in /  1011.4hPa SSO 5mph /  8km/h 6.9mph /  11.1km/h 49.1% 0in /  0.0mm
10:14 82 °F /  27.8 °C 61 °F /  16.1 °C 29.9in /  1011.4hPa SSO 4.3mph /  6.9km/h 8.1mph /  13km/h 49% 0in /  0.0mm
10:19 82.4 °F /  28 °C 61 °F /  16.1 °C 29.9in /  1011.5hPa SSO 4.5mph /  7.3km/h 9.2mph /  14.8km/h 48.5% 0in /  0.0mm
10:24 82.9 °F /  28.3 °C 60.8 °F /  16 °C 29.9in /  1011.5hPa SSO 5.2mph /  8.4km/h 9mph /  14.5km/h 47.4% 0in /  0.0mm
10:29 83.5 °F /  28.6 °C 60.1 °F /  15.6 °C 29.9in /  1011.5hPa OSO 4.8mph /  7.8km/h 7mph /  11.3km/h 45.3% 0in /  0.0mm
10:34 84 °F /  28.9 °C 59.7 °F /  15.4 °C 29.9in /  1011.6hPa OSO 3.6mph /  5.8km/h 6mph /  9.7km/h 44% 0in /  0.0mm
10:39 84.7 °F /  29.3 °C 59.5 °F /  15.3 °C 29.9in /  1011.6hPa Oeste 3.3mph /  5.3km/h 6mph /  9.7km/h 42.6% 0in /  0.0mm
10:44 85.5 °F /  29.7 °C 59.7 °F /  15.4 °C 29.9in /  1011.6hPa Sur 2.4mph /  3.9km/h 5.4mph /  8.7km/h 41.9% 0in /  0.0mm
10:49 86.4 °F /  30.2 °C 59.9 °F /  15.5 °C 29.9in /  1011.6hPa NE 2.4mph /  3.9km/h 6.2mph /  10km/h 41% 0in /  0.0mm
10:54 86.7 °F /  30.4 °C 59.7 °F /  15.4 °C 29.9in /  1011.6hPa ENE 2.4mph /  3.9km/h 7.4mph /  11.9km/h 40.4% 0in /  0.0mm
10:59 86.7 °F /  30.4 °C 59.9 °F /  15.5 °C 29.9in /  1011.6hPa NE 2.9mph /  4.7km/h 8.1mph /  13km/h 40.4% 0in /  0.0mm
11:04 86.5 °F /  30.3 °C 60.3 °F /  15.7 °C 29.9in /  1011.9hPa NE 4.3mph /  6.9km/h 9.2mph /  14.8km/h 41.4% 0in /  0.0mm
11:09 86.5 °F /  30.3 °C 60.6 °F /  15.9 °C 29.9in /  1011.9hPa NE 4.5mph /  7.3km/h 9mph /  14.5km/h 42% 0in /  0.0mm
11:14 86.5 °F /  30.3 °C 61.3 °F /  16.3 °C 29.9in /  1011.9hPa NNE 5.2mph /  8.4km/h 10.4mph /  16.7km/h 42.9% 0in /  0.0mm
11:19 86.5 °F /  30.3 °C 61.5 °F /  16.4 °C 29.9in /  1012.0hPa NE 5.4mph /  8.7km/h 10mph /  16.1km/h 43% 0in /  0.0mm
11:24 86.5 °F /  30.3 °C 62.2 °F /  16.8 °C 29.9in /  1012.0hPa NE 6.2mph /  10km/h 12.7mph /  20.4km/h 44.2% 0in /  0.0mm
11:29 86.5 °F /  30.3 °C 62.8 °F /  17.1 °C 29.9in /  1012.0hPa NE 6.2mph /  10km/h 13mph /  20.9km/h 45.2% 0in /  0.0mm
11:34 86.5 °F /  30.3 °C 61.5 °F /  16.4 °C 29.9in /  1012.0hPa NE 6.2mph /  10km/h 13mph /  20.9km/h 43.2% 0in /  0.0mm
11:39 86.5 °F /  30.3 °C 61 °F /  16.1 °C 29.9in /  1012.0hPa NE 6.7mph /  10.8km/h 13.8mph /  22.2km/h 42.3% 0in /  0.0mm
11:44 86.9 °F /  30.5 °C 61.5 °F /  16.4 °C 29.9in /  1012.0hPa NE 8.5mph /  13.7km/h 14mph /  22.5km/h 42.9% 0in /  0.0mm
11:49 87.4 °F /  30.8 °C 62.2 °F /  16.8 °C 29.9in /  1012.0hPa NE 8.3mph /  13.3km/h 13mph /  20.9km/h 43% 0in /  0.0mm
11:54 87.6 °F /  30.9 °C 63 °F /  17.2 °C 29.9in /  1011.9hPa NE 7.6mph /  12.2km/h 15.2mph /  24.5km/h 43.6% 0in /  0.0mm
11:59 88 °F /  31.1 °C 62.6 °F /  17 °C 29.9in /  1011.9hPa NE 7.8mph /  12.5km/h 15mph /  24.1km/h 42.9% 0in /  0.0mm
12:04 88.2 °F /  31.2 °C 63.1 °F /  17.3 °C 29.9in /  1011.9hPa NE 8.1mph /  13km/h 15mph /  24.1km/h 43.5% 0in /  0.0mm
12:09 88.2 °F /  31.2 °C 63.3 °F /  17.4 °C 29.9in /  1011.8hPa NE 8.4mph /  13.6km/h 16.1mph /  25.9km/h 43.8% 0in /  0.0mm
12:14 88.2 °F /  31.2 °C 63.9 °F /  17.7 °C 29.9in /  1011.8hPa NE 9.7mph /  15.6km/h 16mph /  25.7km/h 44.5% 0in /  0.0mm
12:19 88.3 °F /  31.3 °C 64.4 °F /  18 °C 29.9in /  1011.9hPa NE 9.4mph /  15.2km/h 15.2mph /  24.5km/h 45.1% 0in /  0.0mm
12:24 88.3 °F /  31.3 °C 62.8 °F /  17.1 °C 29.9in /  1011.9hPa NE 8.7mph /  14km/h 15mph /  24.1km/h 42.8% 0in /  0.0mm
12:29 88.5 °F /  31.4 °C 63.9 °F /  17.7 °C 29.9in /  1011.9hPa NE 8.7mph /  14km/h 15mph /  24.1km/h 43.9% 0in /  0.0mm
12:34 88.7 °F /  31.5 °C 64.8 °F /  18.2 °C 29.9in /  1011.9hPa ENE 8.7mph /  14km/h 15mph /  24.1km/h 45.2% 0in /  0.0mm
12:39 89.1 °F /  31.7 °C 66 °F /  18.9 °C 29.9in /  1011.9hPa NE 8.6mph /  13.8km/h 15mph /  24.1km/h 46.6% 0in /  0.0mm
12:44 89.2 °F /  31.8 °C 66.7 °F /  19.3 °C 29.9in /  1011.9hPa ENE 8.1mph /  13km/h 16.1mph /  25.9km/h 47.7% 0in /  0.0mm
12:49 89.2 °F /  31.8 °C 67.8 °F /  19.9 °C 29.9in /  1012.0hPa ENE 8.2mph /  13.2km/h 16mph /  25.7km/h 49.3% 0in /  0.0mm
12:54 89.4 °F /  31.9 °C 68.7 °F /  20.4 °C 29.9in /  1012.0hPa NE 8.5mph /  13.7km/h 15mph /  24.1km/h 50.5% 0in /  0.0mm
12:59 89.8 °F /  32.1 °C 68.9 °F /  20.5 °C 29.9in /  1012.0hPa ENE 8.4mph /  13.5km/h 16.3mph /  26.2km/h 50.4% 0in /  0.0mm
13:04 89.8 °F /  32.1 °C 69.1 °F /  20.6 °C 29.9in /  1012.0hPa NE 8.1mph /  13km/h 17.3mph /  27.8km/h 50.9% 0in /  0.0mm
13:09 89.6 °F /  32 °C 68.9 °F /  20.5 °C 29.9in /  1012.0hPa ENE 8.1mph /  13km/h 17mph /  27.4km/h 50.7% 0in /  0.0mm
13:14 90.1 °F /  32.3 °C 68.5 °F /  20.3 °C 29.9in /  1012.0hPa ENE 8.1mph /  13km/h 15mph /  24.1km/h 49.4% 0in /  0.0mm
13:19 90.3 °F /  32.4 °C 69.6 °F /  20.9 °C 29.9in /  1012.0hPa ENE 8.1mph /  13km/h 14mph /  22.5km/h 50.8% 0in /  0.0mm
13:24 90.5 °F /  32.5 °C 69.1 °F /  20.6 °C 29.9in /  1011.9hPa NE 8.1mph /  13km/h 17.5mph /  28.2km/h 49.5% 0in /  0.0mm
13:29 90.7 °F /  32.6 °C 68.9 °F /  20.5 °C 29.9in /  1011.9hPa NE 8.3mph /  13.3km/h 18.5mph /  29.8km/h 49.1% 0in /  0.0mm
13:34 90.1 °F /  32.3 °C 67.6 °F /  19.8 °C 29.9in /  1011.9hPa NE 8.7mph /  14km/h 19mph /  30.6km/h 47.9% 0in /  0.0mm
13:39 90 °F /  32.2 °C 66.9 °F /  19.4 °C 29.9in /  1011.9hPa NE 9.3mph /  15km/h 19.7mph /  31.7km/h 46.8% 0in /  0.0mm
13:44 90 °F /  32.2 °C 65.7 °F /  18.7 °C 29.9in /  1011.9hPa NE 11.4mph /  18.4km/h 20mph /  32.2km/h 44.6% 0in /  0.0mm
13:49 90.1 °F /  32.3 °C 66 °F /  18.9 °C 29.9in /  1011.9hPa NE 11.4mph /  18.3km/h 18.4mph /  29.6km/h 44.9% 0in /  0.0mm
13:54 90.1 °F /  32.3 °C 66.7 °F /  19.3 °C 29.9in /  1011.7hPa NE 11.2mph /  18km/h 20.7mph /  33.3km/h 46.1% 0in /  0.0mm
13:59 90.5 °F /  32.5 °C 67.5 °F /  19.7 °C 29.9in /  1011.7hPa ENE 10.9mph /  17.6km/h 21mph /  33.8km/h 46.8% 0in /  0.0mm
14:04 90.9 °F /  32.7 °C 66.9 °F /  19.4 °C 29.9in /  1011.7hPa NE 10.2mph /  16.4km/h 17.3mph /  27.8km/h 45.7% 0in /  0.0mm
14:09 90.5 °F /  32.5 °C 66.6 °F /  19.2 °C 29.9in /  1011.6hPa NE 10.1mph /  16.3km/h 17.3mph /  27.8km/h 45.4% 0in /  0.0mm
14:14 90.3 °F /  32.4 °C 66.4 °F /  19.1 °C 29.9in /  1011.6hPa NE 10mph /  16.1km/h 17.5mph /  28.2km/h 45.5% 0in /  0.0mm
14:19 90.1 °F /  32.3 °C 66.2 °F /  19 °C 29.9in /  1011.6hPa NE 10.3mph /  16.6km/h 20.1mph /  32.3km/h 45.4% 0in /  0.0mm
14:24 90.1 °F /  32.3 °C 65.8 °F /  18.8 °C 29.9in /  1011.5hPa NE 11.2mph /  18km/h 21mph /  33.8km/h 44.9% 0in /  0.0mm
14:29 90.1 °F /  32.3 °C 65.8 °F /  18.8 °C 29.9in /  1011.5hPa NE 11.7mph /  18.8km/h 22.3mph /  35.9km/h 45% 0in /  0.0mm
14:34 90.1 °F /  32.3 °C 66.7 °F /  19.3 °C 29.9in /  1011.5hPa NE 13mph /  20.9km/h 22mph /  35.4km/h 46.4% 0in /  0.0mm
14:39 90 °F /  32.2 °C 67.3 °F /  19.6 °C 29.9in /  1011.5hPa NE 13mph /  20.9km/h 22mph /  35.4km/h 47.3% 0in /  0.0mm
14:44 90 °F /  32.2 °C 67.3 °F /  19.6 °C 29.9in /  1011.5hPa NE 13mph /  20.9km/h 21mph /  33.8km/h 47.7% 0in /  0.0mm
14:49 90 °F /  32.2 °C 67.3 °F /  19.6 °C 29.9in /  1011.5hPa NE 12.6mph /  20.3km/h 20mph /  32.2km/h 47.4% 0in /  0.0mm
14:54 90.1 °F /  32.3 °C 66.9 °F /  19.4 °C 29.9in /  1011.4hPa ENE 11.4mph /  18.4km/h 19.2mph /  30.9km/h 46.6% 0in /  0.0mm
14:59 90.1 °F /  32.3 °C 66 °F /  18.9 °C 29.9in /  1011.4hPa NE 11.1mph /  17.8km/h 19mph /  30.6km/h 45% 0in /  0.0mm
15:04 90.5 °F /  32.5 °C 67.1 °F /  19.5 °C 29.9in /  1011.4hPa NE 10.2mph /  16.4km/h 20.7mph /  33.3km/h 46.4% 0in /  0.0mm
15:09 90.5 °F /  32.5 °C 68.2 °F /  20.1 °C 29.9in /  1011.4hPa NE 10.6mph /  17km/h 21mph /  33.8km/h 48% 0in /  0.0mm
15:14 90.1 °F /  32.3 °C 68.5 °F /  20.3 °C 29.9in /  1011.4hPa NE 11.8mph /  19km/h 24.6mph /  39.6km/h 49.1% 0in /  0.0mm
15:19 90 °F /  32.2 °C 68.2 °F /  20.1 °C 29.9in /  1011.4hPa NE 12.1mph /  19.4km/h 25mph /  40.2km/h 49% 0in /  0.0mm
15:24 90 °F /  32.2 °C 68.4 °F /  20.2 °C 29.9in /  1011.4hPa NE 13mph /  20.9km/h 23mph /  37km/h 49.1% 0in /  0.0mm
15:29 90 °F /  32.2 °C 68 °F /  20 °C 29.9in /  1011.4hPa NE 12.6mph /  20.2km/h 22mph /  35.4km/h 48.5% 0in /  0.0mm
15:34 90.1 °F /  32.3 °C 68.4 °F /  20.2 °C 29.9in /  1011.4hPa NE 11.2mph /  18km/h 21.9mph /  35.2km/h 49% 0in /  0.0mm
15:39 90 °F /  32.2 °C 68 °F /  20 °C 29.9in /  1011.4hPa NE 11.4mph /  18.3km/h 22mph /  35.4km/h 48.6% 0in /  0.0mm
15:44 90 °F /  32.2 °C 69.1 °F /  20.6 °C 29.9in /  1011.4hPa NE 11.8mph /  19km/h 21.3mph /  34.3km/h 50.7% 0in /  0.0mm
15:49 89.8 °F /  32.1 °C 69.4 °F /  20.8 °C 29.9in /  1011.4hPa NE 11.8mph /  19km/h 21mph /  33.8km/h 51.4% 0in /  0.0mm
15:54 89.8 °F /  32.1 °C 68.5 °F /  20.3 °C 29.9in /  1011.4hPa NE 11.8mph /  19km/h 18.1mph /  29.1km/h 49.7% 0in /  0.0mm
15:59 89.6 °F /  32 °C 68 °F /  20 °C 29.9in /  1011.4hPa NE 11.6mph /  18.7km/h 18.4mph /  29.6km/h 49.1% 0in /  0.0mm
16:04 89.6 °F /  32 °C 67.5 °F /  19.7 °C 29.9in /  1011.4hPa NE 11.2mph /  18km/h 19mph /  30.6km/h 48.4% 0in /  0.0mm
16:09 90 °F /  32.2 °C 68 °F /  20 °C 29.9in /  1011.4hPa ENE 10.9mph /  17.6km/h 19mph /  30.6km/h 48.7% 0in /  0.0mm
16:14 90.1 °F /  32.3 °C 68 °F /  20 °C 29.9in /  1011.4hPa ENE 10mph /  16.1km/h 16.1mph /  25.9km/h 48.5% 0in /  0.0mm
16:16 90.1 °F /  32.3 °C 67.6 °F /  19.8 °C 29.9in /  1011.4hPa NE 10mph /  16.1km/h 16.3mph /  26.2km/h 47.8% 0in /  0.0mm
16:39 90.3 °F /  32.4 °C 64.2 °F /  17.9 °C 29.9in /  1011.2hPa ENE 8.9mph /  14.4km/h 15.9mph /  25.6km/h 42.2% 0in /  0.0mm
16:44 90.1 °F /  32.3 °C 63.7 °F /  17.6 °C 29.9in /  1011.2hPa NE 8.1mph /  13km/h 19.6mph /  31.5km/h 41.6% 0in /  0.0mm
16:49 90 °F /  32.2 °C 63.5 °F /  17.5 °C 29.9in /  1011.2hPa NE 9.1mph /  14.6km/h 20.7mph /  33.3km/h 41.7% 0in /  0.0mm
16:54 90 °F /  32.2 °C 63.9 °F /  17.7 °C 29.9in /  1011.1hPa NE 12.3mph /  19.8km/h 21.9mph /  35.2km/h 42.3% 0in /  0.0mm
16:59 90 °F /  32.2 °C 63.5 °F /  17.5 °C 29.9in /  1011.1hPa NE 12.1mph /  19.4km/h 22mph /  35.4km/h 41.5% 0in /  0.0mm
17:04 90.1 °F /  32.3 °C 63.9 °F /  17.7 °C 29.9in /  1011.1hPa NE 11.4mph /  18.4km/h 19mph /  30.6km/h 41.8% 0in /  0.0mm
17:09 90.1 °F /  32.3 °C 63.9 °F /  17.7 °C 29.9in /  1011.0hPa NE 11.4mph /  18.4km/h 18.5mph /  29.8km/h 42% 0in /  0.0mm
17:14 90 °F /  32.2 °C 64.6 °F /  18.1 °C 29.9in /  1011.0hPa NE 11.4mph /  18.4km/h 22.3mph /  35.9km/h 42.9% 0in /  0.0mm
17:19 90.1 °F /  32.3 °C 65.3 °F /  18.5 °C 29.9in /  1011.0hPa NE 11.2mph /  18km/h 22mph /  35.4km/h 43.8% 0in /  0.0mm
17:24 90.1 °F /  32.3 °C 66 °F /  18.9 °C 29.9in /  1010.9hPa NE 10.2mph /  16.4km/h 21mph /  33.8km/h 45% 0in /  0.0mm
17:29 90 °F /  32.2 °C 66.2 °F /  19 °C 29.9in /  1010.9hPa ENE 10.1mph /  16.3km/h 20.7mph /  33.3km/h 45.9% 0in /  0.0mm
17:34 89.6 °F /  32 °C 66 °F /  18.9 °C 29.9in /  1010.9hPa ENE 10mph /  16.1km/h 21mph /  33.8km/h 45.7% 0in /  0.0mm
17:39 89.4 °F /  31.9 °C 65.8 °F /  18.8 °C 29.9in /  1010.9hPa NE 10.1mph /  16.3km/h 20mph /  32.2km/h 45.8% 0in /  0.0mm
17:44 89.2 °F /  31.8 °C 66.7 °F /  19.3 °C 29.9in /  1010.9hPa NE 10.7mph /  17.2km/h 20mph /  32.2km/h 47.7% 0in /  0.0mm
17:49 89.1 °F /  31.7 °C 67.3 °F /  19.6 °C 29.9in /  1010.9hPa NE 10.7mph /  17.2km/h 19.7mph /  31.7km/h 48.9% 0in /  0.0mm
17:54 89.1 °F /  31.7 °C 66.9 °F /  19.4 °C 29.9in /  1010.9hPa ENE 10.7mph /  17.2km/h 20mph /  32.2km/h 48.1% 0in /  0.0mm
17:59 89.1 °F /  31.7 °C 67.5 °F /  19.7 °C 29.9in /  1010.9hPa NE 10.3mph /  16.6km/h 18.4mph /  29.6km/h 49.2% 0in /  0.0mm
18:04 88.9 °F /  31.6 °C 68 °F /  20 °C 29.9in /  1010.9hPa NE 9.2mph /  14.8km/h 19mph /  30.6km/h 50.3% 0in /  0.0mm
18:09 88.5 °F /  31.4 °C 68.2 °F /  20.1 °C 29.9in /  1010.8hPa NE 9.6mph /  15.5km/h 20.8mph /  33.5km/h 51.1% 0in /  0.0mm
18:14 88.3 °F /  31.3 °C 68.5 °F /  20.3 °C 29.9in /  1010.8hPa ENE 11.2mph /  18km/h 21mph /  33.8km/h 52.2% 0in /  0.0mm
18:19 88.2 °F /  31.2 °C 68.9 °F /  20.5 °C 29.9in /  1010.8hPa NE 11.1mph /  17.9km/h 20mph /  32.2km/h 53% 0in /  0.0mm
18:24 87.8 °F /  31 °C 69.3 °F /  20.7 °C 29.9in /  1010.8hPa NE 10.7mph /  17.2km/h 19mph /  30.6km/h 54.4% 0in /  0.0mm
18:29 87.8 °F /  31 °C 68.7 °F /  20.4 °C 29.9in /  1010.8hPa NE 10.8mph /  17.4km/h 20.7mph /  33.3km/h 53.4% 0in /  0.0mm
18:34 87.8 °F /  31 °C 68.9 °F /  20.5 °C 29.9in /  1010.8hPa NE 11.4mph /  18.4km/h 21mph /  33.8km/h 53.7% 0in /  0.0mm
18:39 88 °F /  31.1 °C 69.4 °F /  20.8 °C 29.9in /  1010.8hPa NE 10.8mph /  17.4km/h 16.3mph /  26.2km/h 54.5% 0in /  0.0mm
18:44 87.8 °F /  31 °C 70.3 °F /  21.3 °C 29.9in /  1010.8hPa NE 8.5mph /  13.7km/h 19mph /  30.6km/h 56.4% 0in /  0.0mm
18:49 87.1 °F /  30.6 °C 70.9 °F /  21.6 °C 29.9in /  1010.9hPa NE 9.1mph /  14.7km/h 19.7mph /  31.7km/h 59% 0in /  0.0mm
18:54 86.9 °F /  30.5 °C 71.4 °F /  21.9 °C 29.9in /  1010.9hPa NE 11.4mph /  18.4km/h 20mph /  32.2km/h 60.3% 0in /  0.0mm
18:59 86.7 °F /  30.4 °C 71.6 °F /  22 °C 29.9in /  1010.9hPa NE 11.4mph /  18.4km/h 21.3mph /  34.3km/h 60.7% 0in /  0.0mm
19:04 86.4 °F /  30.2 °C 71.8 °F /  22.1 °C 29.9in /  1010.9hPa NE 11.4mph /  18.4km/h 21.3mph /  34.3km/h 62% 0in /  0.0mm
19:09 86.2 °F /  30.1 °C 71.6 °F /  22 °C 29.9in /  1010.9hPa NE 11.5mph /  18.5km/h 21mph /  33.8km/h 62% 0in /  0.0mm
19:14 85.8 °F /  29.9 °C 72.1 °F /  22.3 °C 29.9in /  1010.9hPa NE 11.8mph /  19km/h 21mph /  33.8km/h 63.6% 0in /  0.0mm
19:19 85.8 °F /  29.9 °C 72 °F /  22.2 °C 29.9in /  1010.9hPa NE 11.9mph /  19.2km/h 21mph /  33.8km/h 63.5% 0in /  0.0mm
19:24 85.5 °F /  29.7 °C 72.3 °F /  22.4 °C 29.9in /  1010.9hPa NE 12.3mph /  19.8km/h 20mph /  32.2km/h 64.8% 0in /  0.0mm
19:29 85.1 °F /  29.5 °C 72.3 °F /  22.4 °C 29.9in /  1010.9hPa NE 12.3mph /  19.8km/h 20mph /  32.2km/h 65.5% 0in /  0.0mm
19:34 84.9 °F /  29.4 °C 72.5 °F /  22.5 °C 29.9in /  1011.0hPa NE 12.3mph /  19.8km/h 20mph /  32.2km/h 66.3% 0in /  0.0mm
19:39 84.7 °F /  29.3 °C 72.5 °F /  22.5 °C 29.9in /  1011.0hPa NE 11.9mph /  19.2km/h 18.4mph /  29.6km/h 66.8% 0in /  0.0mm
19:44 84.6 °F /  29.2 °C 72.7 °F /  22.6 °C 29.9in /  1011.0hPa NE 10.7mph /  17.2km/h 18.5mph /  29.8km/h 67.8% 0in /  0.0mm
19:49 84.2 °F /  29 °C 72.5 °F /  22.5 °C 29.9in /  1011.3hPa NE 10.9mph /  17.5km/h 19mph /  30.6km/h 68% 0in /  0.0mm
19:54 84 °F /  28.9 °C 72.3 °F /  22.4 °C 29.9in /  1011.3hPa NE 11.4mph /  18.4km/h 18.4mph /  29.6km/h 68% 0in /  0.0mm
19:59 83.8 °F /  28.8 °C 72.7 °F /  22.6 °C 29.9in /  1011.3hPa NE 11.4mph /  18.3km/h 20.7mph /  33.3km/h 68.8% 0in /  0.0mm
20:04 83.7 °F /  28.7 °C 72.5 °F /  22.5 °C 29.9in /  1011.4hPa NE 11.2mph /  18km/h 21mph /  33.8km/h 69.2% 0in /  0.0mm
20:09 83.8 °F /  28.8 °C 72.7 °F /  22.6 °C 29.9in /  1011.4hPa NE 10.6mph /  17.1km/h 15.9mph /  25.6km/h 69.4% 0in /  0.0mm
20:14 83.7 °F /  28.7 °C 72.7 °F /  22.6 °C 29.9in /  1011.4hPa NE 8.5mph /  13.7km/h 16.1mph /  25.9km/h 69.9% 0in /  0.0mm
20:19 83.5 °F /  28.6 °C 73 °F /  22.8 °C 29.9in /  1011.6hPa ENE 8.5mph /  13.7km/h 15mph /  24.1km/h 70.8% 0in /  0.0mm
20:24 83.5 °F /  28.6 °C 72.9 °F /  22.7 °C 29.9in /  1011.6hPa NE 8.7mph /  14km/h 14mph /  22.5km/h 70.4% 0in /  0.0mm
20:29 83.3 °F /  28.5 °C 72.9 °F /  22.7 °C 29.9in /  1011.6hPa NE 8.3mph /  13.4km/h 13mph /  20.9km/h 71% 0in /  0.0mm
20:34 83.1 °F /  28.4 °C 72.7 °F /  22.6 °C 29.9in /  1011.7hPa ENE 6.9mph /  11.1km/h 13mph /  20.9km/h 71% 0in /  0.0mm
20:39 82.9 °F /  28.3 °C 72.9 °F /  22.7 °C 29.9in /  1011.7hPa ENE 6.8mph /  10.9km/h 12.7mph /  20.4km/h 71.6% 0in /  0.0mm
20:44 82.8 °F /  28.2 °C 72.7 °F /  22.6 °C 29.9in /  1011.7hPa ENE 6.4mph /  10.3km/h 13mph /  20.9km/h 72% 0in /  0.0mm
20:49 82.6 °F /  28.1 °C 72.7 °F /  22.6 °C 29.9in /  1011.9hPa NE 6.4mph /  10.3km/h 13mph /  20.9km/h 72% 0in /  0.0mm
20:54 82.2 °F /  27.9 °C 72.5 °F /  22.5 °C 29.9in /  1011.9hPa NE 6.4mph /  10.3km/h 14mph /  22.5km/h 72.4% 0in /  0.0mm
20:59 82 °F /  27.8 °C 72.5 °F /  22.5 °C 29.9in /  1011.9hPa NE 7mph /  11.2km/h 16.1mph /  25.9km/h 73% 0in /  0.0mm
21:04 82 °F /  27.8 °C 72.9 °F /  22.7 °C 29.9in /  1011.9hPa NE 8.5mph /  13.7km/h 16mph /  25.7km/h 73.7% 0in /  0.0mm
21:09 81.9 °F /  27.7 °C 72.5 °F /  22.5 °C 29.9in /  1011.9hPa NE 8.3mph /  13.3km/h 13.8mph /  22.2km/h 73.1% 0in /  0.0mm
21:14 81.9 °F /  27.7 °C 72.5 °F /  22.5 °C 29.9in /  1011.9hPa NE 7.4mph /  11.9km/h 14mph /  22.5km/h 73.3% 0in /  0.0mm
21:19 81.9 °F /  27.7 °C 72.9 °F /  22.7 °C 29.9in /  1012.0hPa NE 7.5mph /  12km/h 14mph /  22.5km/h 74% 0in /  0.0mm
21:24 81.7 °F /  27.6 °C 72.9 °F /  22.7 °C 29.9in /  1012.0hPa NE 7.6mph /  12.2km/h 13mph /  20.9km/h 74.4% 0in /  0.0mm
21:29 81.7 °F /  27.6 °C 72.9 °F /  22.7 °C 29.9in /  1012.0hPa NE 7.3mph /  11.8km/h 11.2mph /  18km/h 75% 0in /  0.0mm
21:34 81.3 °F /  27.4 °C 72.9 °F /  22.7 °C 29.9in /  1012.2hPa NE 6.2mph /  10km/h 12mph /  19.3km/h 75.4% 0in /  0.0mm
21:39 81.3 °F /  27.4 °C 73 °F /  22.8 °C 29.9in /  1012.2hPa NE 6.2mph /  10km/h 11.5mph /  18.5km/h 76% 0in /  0.0mm
21:44 81.1 °F /  27.3 °C 73 °F /  22.8 °C 29.9in /  1012.2hPa NE 6.4mph /  10.3km/h 13mph /  20.9km/h 76.1% 0in /  0.0mm
21:49 81.1 °F /  27.3 °C 72.9 °F /  22.7 °C 29.9in /  1012.5hPa NE 6.6mph /  10.7km/h 13mph /  20.9km/h 76.1% 0in /  0.0mm
21:54 81.1 °F /  27.3 °C 73 °F /  22.8 °C 29.9in /  1012.5hPa NE 7.4mph /  11.9km/h 10.4mph /  16.7km/h 76.2% 0in /  0.0mm
21:59 81.1 °F /  27.3 °C 72.9 °F /  22.7 °C 29.9in /  1012.5hPa NE 7.1mph /  11.4km/h 12.7mph /  20.4km/h 76% 0in /  0.0mm
22:04 81 °F /  27.2 °C 72.7 °F /  22.6 °C 29.9in /  1012.5hPa NE 6.2mph /  10km/h 13mph /  20.9km/h 76% 0in /  0.0mm
22:09 81.1 °F /  27.3 °C 72.9 °F /  22.7 °C 29.9in /  1012.5hPa NE 6.3mph /  10.2km/h 12mph /  19.3km/h 76% 0in /  0.0mm
22:14 81.1 °F /  27.3 °C 72.9 °F /  22.7 °C 29.9in /  1012.5hPa NE 6.9mph /  11.1km/h 12.7mph /  20.4km/h 76% 0in /  0.0mm
22:19 81.1 °F /  27.3 °C 72.9 °F /  22.7 °C 29.9in /  1012.7hPa NE 6.8mph /  10.9km/h 13mph /  20.9km/h 76% 0in /  0.0mm
22:24 81.1 °F /  27.3 °C 72.9 °F /  22.7 °C 29.9in /  1012.7hPa NE 6.4mph /  10.3km/h 11mph /  17.7km/h 76% 0in /  0.0mm
22:29 81.1 °F /  27.3 °C 72.9 °F /  22.7 °C 29.9in /  1012.7hPa NE 6.2mph /  10km/h 9.2mph /  14.8km/h 76% 0in /  0.0mm
22:34 81.1 °F /  27.3 °C 72.9 °F /  22.7 °C 29.9in /  1012.8hPa NE 5.4mph /  8.7km/h 9.2mph /  14.8km/h 76.1% 0in /  0.0mm
22:39 81 °F /  27.2 °C 73 °F /  22.8 °C 29.9in /  1012.8hPa NNE 5.3mph /  8.6km/h 8.1mph /  13km/h 77% 0in /  0.0mm
22:44 80.8 °F /  27.1 °C 73.2 °F /  22.9 °C 29.9in /  1012.8hPa NE 5.2mph /  8.4km/h 8.5mph /  13.7km/h 77.8% 0in /  0.0mm
22:49 80.8 °F /  27.1 °C 73.2 °F /  22.9 °C 29.9in /  1012.8hPa NE 5.1mph /  8.2km/h 9mph /  14.5km/h 78% 0in /  0.0mm
22:54 80.8 °F /  27.1 °C 73.4 °F /  23 °C 29.9in /  1012.8hPa NE 4.7mph /  7.6km/h 7mph /  11.3km/h 78.4% 0in /  0.0mm
22:59 80.8 °F /  27.1 °C 73.8 °F /  23.2 °C 29.9in /  1012.8hPa NE 4.4mph /  7.1km/h 6mph /  9.7km/h 79% 0in /  0.0mm
23:04 80.8 °F /  27.1 °C 73.8 °F /  23.2 °C 29.9in /  1012.9hPa NE 3.6mph /  5.8km/h 6.2mph /  10km/h 79% 0in /  0.0mm
23:09 80.6 °F /  27 °C 73.6 °F /  23.1 °C 29.9in /  1012.9hPa NNE 3.7mph /  5.9km/h 6.2mph /  10km/h 79% 0in /  0.0mm
23:14 80.4 °F /  26.9 °C 73.8 °F /  23.2 °C 29.9in /  1012.9hPa NNE 4mph /  6.5km/h 6.9mph /  11.1km/h 79.9% 0in /  0.0mm
23:19 80.4 °F /  26.9 °C 73.8 °F /  23.2 °C 29.9in /  1013.0hPa NNE 4.1mph /  6.6km/h 8.1mph /  13km/h 80% 0in /  0.0mm
23:24 80.4 °F /  26.9 °C 73.8 °F /  23.2 °C 29.9in /  1013.0hPa NNE 4.3mph /  6.9km/h 8mph /  12.9km/h 80% 0in /  0.0mm
23:29 80.4 °F /  26.9 °C 73.8 °F /  23.2 °C 29.9in /  1013.0hPa NNE 4.2mph /  6.8km/h 7mph /  11.3km/h 80% 0in /  0.0mm
23:34 80.4 °F /  26.9 °C 73.8 °F /  23.2 °C 29.9in /  1013.0hPa NNE 4mph /  6.5km/h 6.9mph /  11.1km/h 80% 0in /  0.0mm
23:39 80.4 °F /  26.9 °C 73.9 °F /  23.3 °C 29.9in /  1013.0hPa NE 4mph /  6.5km/h 8.1mph /  13km/h 80.6% 0in /  0.0mm
23:44 80.2 °F /  26.8 °C 73.9 °F /  23.3 °C 29.9in /  1013.0hPa NE 4mph /  6.5km/h 8.1mph /  13km/h 81% 0in /  0.0mm
23:49 80.2 °F /  26.8 °C 73.9 °F /  23.3 °C 29.9in /  1013.0hPa NE 4.2mph /  6.7km/h 8.1mph /  13km/h 81% 0in /  0.0mm
23:54 80.2 °F /  26.8 °C 73.9 °F /  23.3 °C 29.9in /  1013.0hPa NE 4.7mph /  7.6km/h 8mph /  12.9km/h 81% 0in /  0.0mm
23:59 80.1 °F /  26.7 °C 73.8 °F /  23.2 °C 29.9in /  1013.0hPa NE 4.5mph /  7.3km/h 6.9mph /  11.1km/h 81% 0in /  0.0mm
Murcia-Puente Tocinos, España
Compliments of Weather Underground - 3 mb

La estación de MeteoMurcia.com, publica sus datos en los siguientes proyectos:

Weather Underground PWS IMURCIAP2 Meteoclimatic www.awekas.at

W3Counter
Web Analytics